createdAt,value
2018-06-03T00:01:30.189Z,23.23
2018-06-03T00:06:13.355Z,25.03
2018-06-03T00:10:56.471Z,25.70
2018-06-03T00:15:40.427Z,26.03
2018-06-03T00:20:36.135Z,24.97
2018-06-03T00:25:19.302Z,24.33
2018-06-03T00:30:03.516Z,23.37
2018-06-03T00:34:46.930Z,25.63
2018-06-03T00:39:31.334Z,24.27
2018-06-03T00:44:14.744Z,24.00
2018-06-03T00:48:58.150Z,24.77
2018-06-03T00:53:42.390Z,24.07
2018-06-03T00:58:25.738Z,22.63
2018-06-03T01:03:09.107Z,23.73
2018-06-03T01:07:52.440Z,23.33
2018-06-03T01:12:36.872Z,24.53
2018-06-03T01:17:21.022Z,24.80
2018-06-03T01:22:04.490Z,27.10
2018-06-03T01:26:48.755Z,26.60
2018-06-03T01:31:32.299Z,26.93
2018-06-03T01:36:16.420Z,28.77
2018-06-03T01:40:59.880Z,29.97
2018-06-03T01:45:43.345Z,28.77
2018-06-03T01:50:26.753Z,29.60
2018-06-03T01:55:10.175Z,30.13
2018-06-03T01:59:53.567Z,30.80
2018-06-03T02:04:37.889Z,28.37
2018-06-03T02:09:21.229Z,30.50
2018-06-03T02:14:04.593Z,30.43
2018-06-03T02:18:47.978Z,29.47
2018-06-03T02:23:31.317Z,29.53
2018-06-03T02:28:14.642Z,29.83
2018-06-03T02:32:58.823Z,29.67
2018-06-03T02:37:42.216Z,26.20
2018-06-03T02:42:26.351Z,28.13
2018-06-03T02:47:09.712Z,28.57
2018-06-03T02:51:53.044Z,26.97
2018-06-03T02:56:36.467Z,28.33
2018-06-03T03:01:19.863Z,29.30
2018-06-03T03:06:03.179Z,30.63
2018-06-03T03:10:47.327Z,28.63
2018-06-03T03:15:31.480Z,30.53
2018-06-03T03:20:14.814Z,28.17
2018-06-03T03:24:58.163Z,32.37
2018-06-03T03:29:41.510Z,28.40
2018-06-03T03:34:24.825Z,27.73
2018-06-03T03:39:08.284Z,29.47
2018-06-03T03:43:51.620Z,27.80
2018-06-03T03:48:35.011Z,28.77
2018-06-03T03:53:18.331Z,28.73
2018-06-03T03:58:01.720Z,27.50
2018-06-03T04:02:45.107Z,28.07
2018-06-03T04:07:28.538Z,26.47
2018-06-03T04:12:11.967Z,28.73
2018-06-03T04:16:55.519Z,28.57
2018-06-03T04:21:38.991Z,29.80
2018-06-03T04:26:22.370Z,29.50
2018-06-03T04:31:05.958Z,26.80
2018-06-03T04:35:50.204Z,29.40
2018-06-03T04:40:33.634Z,27.77
2018-06-03T04:45:16.982Z,30.63
2018-06-03T04:50:00.370Z,26.93
2018-06-03T04:54:43.723Z,28.53
2018-06-03T04:59:27.162Z,27.53
2018-06-03T05:04:11.284Z,28.37
2018-06-03T05:08:54.719Z,28.03
2018-06-03T05:13:38.166Z,26.60
2018-06-03T05:18:21.612Z,26.77
2018-06-03T05:23:05.125Z,28.33
2018-06-03T05:27:48.691Z,26.20
2018-06-03T05:32:32.150Z,23.63
2018-06-03T05:37:15.685Z,22.60
2018-06-03T05:41:59.154Z,22.70
2018-06-03T05:52:03.643Z,23.53
2018-06-03T05:57:10.477Z,22.10
2018-06-03T06:02:00.505Z,21.77
2018-06-03T06:06:43.970Z,22.30
2018-06-03T06:11:27.421Z,23.97
2018-06-03T06:16:10.795Z,24.27
2018-06-03T06:20:54.267Z,23.70
2018-06-03T06:25:37.695Z,26.40
2018-06-03T06:30:23.648Z,25.50
2018-06-03T06:35:07.155Z,25.50
2018-06-03T06:39:59.832Z,24.50
2018-06-03T06:44:58.928Z,21.57
2018-06-03T06:49:42.277Z,22.87
2018-06-03T06:54:25.747Z,23.23
2018-06-03T06:59:09.196Z,25.03
2018-06-03T07:03:53.299Z,23.27
2018-06-03T07:08:36.696Z,22.73
2018-06-03T07:13:20.055Z,21.57
2018-06-03T07:18:03.399Z,18.80
2018-06-03T07:22:53.145Z,19.40
2018-06-03T07:27:36.565Z,18.27
2018-06-03T07:37:48.314Z,19.00
2018-06-03T07:42:31.832Z,16.53
2018-06-03T07:47:29.367Z,17.93
2018-06-03T07:52:13.206Z,17.37
2018-06-03T07:57:07.563Z,17.27
2018-06-03T08:02:05.082Z,16.07
2018-06-03T08:06:50.320Z,15.00
2018-06-03T08:11:38.093Z,16.57
2018-06-03T08:16:24.061Z,18.17
2018-06-03T08:21:07.588Z,18.43
2018-06-03T08:31:20.907Z,19.60
2018-06-03T08:47:03.205Z,21.00
2018-06-03T08:51:46.671Z,23.77
2018-06-03T08:56:30.924Z,22.03
2018-06-03T09:01:15.232Z,21.83
2018-06-03T09:05:58.605Z,25.20
2018-06-03T09:10:41.961Z,28.30
2018-06-03T09:15:25.392Z,22.53
2018-06-03T09:20:08.759Z,22.77
2018-06-03T09:24:52.867Z,22.67
2018-06-03T09:29:36.238Z,22.83
2018-06-03T09:34:19.630Z,22.57
2018-06-03T09:39:02.982Z,21.00
2018-06-03T09:43:46.321Z,20.27
2018-06-03T09:48:29.688Z,19.83
2018-06-03T09:53:13.082Z,19.63
2018-06-03T09:57:56.471Z,20.43
2018-06-03T10:02:39.847Z,18.63
2018-06-03T10:07:23.239Z,19.93
2018-06-03T10:12:06.603Z,18.33
2018-06-03T10:16:50.894Z,16.30
2018-06-03T10:21:35.052Z,17.40
2018-06-03T10:26:18.468Z,14.67
2018-06-03T10:31:01.785Z,15.57
2018-06-03T10:35:45.145Z,13.63
2018-06-03T10:40:28.563Z,12.40
2018-06-03T10:45:12.746Z,11.63
2018-06-03T10:49:56.166Z,12.50
2018-06-03T10:54:39.615Z,10.73
2018-06-03T10:59:23.177Z,11.20
2018-06-03T11:04:06.586Z,8.40
2018-06-03T11:08:49.930Z,8.30
2018-06-03T11:13:34.150Z,9.87
2018-06-03T11:18:17.495Z,9.53
2018-06-03T11:23:01.151Z,9.53
2018-06-03T11:27:50.142Z,10.30
2018-06-03T11:32:33.536Z,7.97
2018-06-03T11:37:16.913Z,7.93
2018-06-03T11:42:00.243Z,8.50
2018-06-03T11:46:46.492Z,7.20
2018-06-03T11:51:30.020Z,7.20
2018-06-03T11:56:13.326Z,6.37
2018-06-03T12:00:57.540Z,5.40
2018-06-03T12:05:40.913Z,5.60
2018-06-03T12:10:30.903Z,4.83
2018-06-03T12:15:14.420Z,4.93
2018-06-03T12:19:58.202Z,4.60
2018-06-03T12:24:43.400Z,4.47
2018-06-03T12:34:17.447Z,5.40
2018-06-03T12:39:01.049Z,4.93
2018-06-03T12:43:45.296Z,5.10
2018-06-03T12:48:28.791Z,5.53
2018-06-03T12:53:15.854Z,5.60
2018-06-03T12:57:59.250Z,5.40
2018-06-03T13:02:42.592Z,5.90
2018-06-03T13:07:25.912Z,5.70
2018-06-03T13:12:09.267Z,5.50
2018-06-03T13:16:53.494Z,6.10
2018-06-03T13:21:36.936Z,5.50
2018-06-03T13:26:20.459Z,5.57
2018-06-03T13:31:03.788Z,4.93
2018-06-03T13:35:48.069Z,6.20
2018-06-03T13:40:31.475Z,5.40
2018-06-03T13:45:14.885Z,6.20
2018-06-03T13:49:58.343Z,5.62
2018-06-03T13:54:41.749Z,4.97
2018-06-03T13:59:25.227Z,4.78
2018-06-03T14:04:09.320Z,5.47
2018-06-03T14:08:52.707Z,5.30
2018-06-03T14:13:36.097Z,6.18
2018-06-03T14:18:19.494Z,6.22
2018-06-03T14:23:02.803Z,5.28
2018-06-03T14:27:46.205Z,5.95
2018-06-03T14:32:30.382Z,6.30
2018-06-03T14:37:14.069Z,5.78
2018-06-03T14:41:57.401Z,5.28
2018-06-03T14:46:40.771Z,6.12
2018-06-03T14:51:24.105Z,6.22
2018-06-03T14:56:07.453Z,6.22
2018-06-03T15:00:50.754Z,5.97
2018-06-03T15:05:34.381Z,5.47
2018-06-03T15:10:18.542Z,5.95
2018-06-03T15:15:06.742Z,5.43
2018-06-03T15:19:52.383Z,6.03
2018-06-03T15:24:35.913Z,5.70
2018-06-03T15:29:20.350Z,5.87
2018-06-03T15:34:04.624Z,6.22
2018-06-03T15:38:48.017Z,4.72
2018-06-03T15:43:31.377Z,5.50
2018-06-03T15:48:14.733Z,5.12
2018-06-03T15:52:58.144Z,5.40
2018-06-03T15:57:44.138Z,6.60
2018-06-03T16:02:29.380Z,5.03
2018-06-03T16:07:12.754Z,5.60
2018-06-03T16:11:56.092Z,5.90
2018-06-03T16:16:39.436Z,5.40
2018-06-03T16:21:22.777Z,6.50
2018-06-03T16:26:09.065Z,5.85
2018-06-03T16:30:52.379Z,6.85
2018-06-03T16:35:35.707Z,6.53
2018-06-03T16:40:19.057Z,5.93
2018-06-03T16:45:02.327Z,6.60
2018-06-03T16:49:45.685Z,5.47
2018-06-03T16:54:29.838Z,7.05
2018-06-03T16:59:13.158Z,5.70
2018-06-03T17:03:56.531Z,5.40
2018-06-03T17:08:40.683Z,6.32
2018-06-03T17:13:24.044Z,5.32
2018-06-03T17:18:08.153Z,6.32
2018-06-03T17:22:53.326Z,5.95
2018-06-03T17:27:37.795Z,5.82
2018-06-03T17:32:21.219Z,5.80
2018-06-03T17:37:04.597Z,5.70
2018-06-03T17:41:48.741Z,5.30
2018-06-03T17:46:32.114Z,5.53
2018-06-03T17:51:16.392Z,5.75
2018-06-03T17:56:00.285Z,6.72
2018-06-03T18:00:47.531Z,6.90
2018-06-03T18:05:32.144Z,7.57
2018-06-03T18:10:18.874Z,7.97
2018-06-03T18:15:03.387Z,7.17
2018-06-03T18:19:46.813Z,7.27
2018-06-03T18:24:30.387Z,7.70
2018-06-03T18:29:17.113Z,7.73
2018-06-03T18:34:00.607Z,7.30
2018-06-03T18:38:44.038Z,8.30
2018-06-03T18:44:16.079Z,8.03
2018-06-03T18:49:00.788Z,8.70
2018-06-03T18:53:45.452Z,7.77
2018-06-03T18:58:30.440Z,8.30
2018-06-03T19:03:15.058Z,8.53
2018-06-03T19:07:59.716Z,10.00
2018-06-03T19:12:44.620Z,9.50
2018-06-03T19:17:29.176Z,9.07
2018-06-03T19:22:14.190Z,10.20
2018-06-03T19:26:58.847Z,9.73
2018-06-03T19:31:43.931Z,11.60
2018-06-03T19:36:29.190Z,10.50
2018-06-03T19:41:22.116Z,10.77
2018-06-03T19:46:08.624Z,10.33
2018-06-03T19:50:54.225Z,10.13
2018-06-03T19:55:54.479Z,10.80
2018-06-03T20:00:42.267Z,10.43
2018-06-03T20:05:29.802Z,11.43
2018-06-03T20:10:15.038Z,11.23
2018-06-03T20:15:01.167Z,11.37
2018-06-03T20:19:46.536Z,11.10
2018-06-03T20:24:32.383Z,11.87
2018-06-03T20:29:17.853Z,13.07
2018-06-03T20:34:03.044Z,13.70
2018-06-03T20:38:48.437Z,12.27
2018-06-03T20:43:33.777Z,12.13
2018-06-03T20:48:19.157Z,13.37
2018-06-03T20:53:03.982Z,13.27
2018-06-03T20:57:49.300Z,13.20
2018-06-03T21:02:34.457Z,12.77
2018-06-03T21:07:20.240Z,13.30
2018-06-03T21:12:05.430Z,14.03
2018-06-03T21:16:50.729Z,11.60
2018-06-03T21:21:35.746Z,13.13
2018-06-03T21:26:21.612Z,14.23
2018-06-03T21:31:07.017Z,15.00
2018-06-03T21:35:52.401Z,13.27
2018-06-03T21:40:37.588Z,11.30
2018-06-03T21:45:23.359Z,13.47
2018-06-03T21:50:08.554Z,15.10
2018-06-03T21:54:53.325Z,14.47
2018-06-03T21:59:38.538Z,13.30
2018-06-03T22:04:23.501Z,14.67
2018-06-03T22:09:08.606Z,14.87
2018-06-03T22:13:53.204Z,13.47
2018-06-03T22:18:38.052Z,12.57
2018-06-03T22:23:22.728Z,15.23
2018-06-03T22:28:07.472Z,16.33
2018-06-03T22:32:52.530Z,14.63
2018-06-03T22:37:37.828Z,14.23
2018-06-03T22:42:22.818Z,15.77
2018-06-03T22:47:08.887Z,15.97
2018-06-03T22:51:53.436Z,14.83
2018-06-03T22:56:48.918Z,14.63
2018-06-03T23:01:33.684Z,14.03
2018-06-03T23:06:18.094Z,13.53
2018-06-03T23:11:02.557Z,14.13
2018-06-03T23:15:47.033Z,14.73
2018-06-03T23:20:31.746Z,14.00
2018-06-03T23:25:16.192Z,14.87
2018-06-03T23:30:00.807Z,13.53
2018-06-03T23:34:45.212Z,14.17
2018-06-03T23:39:29.968Z,14.77
2018-06-03T23:44:14.440Z,15.27
2018-06-03T23:48:58.943Z,15.70
2018-06-03T23:53:43.499Z,15.30
2018-06-03T23:58:27.994Z,16.63
